createdAt,value
2022-09-24T00:01:19.407Z,5.27
2022-09-24T00:03:50.930Z,4.90
2022-09-24T00:06:20.860Z,4.90
2022-09-24T00:08:49.616Z,5.93
2022-09-24T00:11:18.051Z,5.90
2022-09-24T00:13:44.523Z,5.50
2022-09-24T00:16:13.255Z,5.43
2022-09-24T00:18:39.987Z,5.10
2022-09-24T00:21:23.382Z,5.20
2022-09-24T00:23:52.553Z,5.43
2022-09-24T00:26:38.311Z,6.13
2022-09-24T00:29:05.628Z,5.53
2022-09-24T00:31:32.322Z,5.33
2022-09-24T00:33:59.050Z,5.73
2022-09-24T00:36:25.583Z,5.70
2022-09-24T00:38:54.358Z,5.70
2022-09-24T00:41:23.330Z,5.53
2022-09-24T00:43:50.149Z,5.97
2022-09-24T00:46:29.869Z,5.20
2022-09-24T00:49:02.838Z,5.60
2022-09-24T00:51:30.586Z,5.57
2022-09-24T00:54:01.363Z,5.17
2022-09-24T00:56:29.140Z,6.50
2022-09-24T00:58:57.546Z,6.57
2022-09-24T01:01:25.334Z,6.73
2022-09-24T01:03:55.532Z,6.50
2022-09-24T01:06:22.445Z,6.17
2022-09-24T01:08:49.763Z,5.90
2022-09-24T01:11:19.303Z,6.20
2022-09-24T01:14:03.513Z,7.37
2022-09-24T01:16:47.051Z,6.50
2022-09-24T01:19:51.035Z,6.70
2022-09-24T01:22:30.309Z,6.37
2022-09-24T01:25:15.173Z,5.90
2022-09-24T01:28:04.876Z,5.90
2022-09-24T01:30:33.359Z,6.67
2022-09-24T01:33:03.341Z,6.07
2022-09-24T01:35:33.715Z,6.20
2022-09-24T01:38:03.391Z,6.60
2022-09-24T01:40:30.496Z,6.33
2022-09-24T01:42:58.432Z,6.03
2022-09-24T01:45:30.124Z,6.10
2022-09-24T01:47:56.667Z,5.93
2022-09-24T01:50:24.668Z,5.30
2022-09-24T01:52:56.227Z,6.20
2022-09-24T01:55:26.011Z,6.80
2022-09-24T01:57:56.622Z,6.47
2022-09-24T02:00:23.322Z,6.43
2022-09-24T02:03:15.756Z,6.67
2022-09-24T02:05:50.723Z,6.37
2022-09-24T02:08:22.506Z,6.37
2022-09-24T02:10:58.018Z,6.60
2022-09-24T02:13:27.694Z,6.37
2022-09-24T02:15:57.918Z,6.47
2022-09-24T02:18:32.054Z,7.07
2022-09-24T02:21:00.155Z,7.23
2022-09-24T02:23:28.400Z,6.97
2022-09-24T02:26:02.108Z,7.53
2022-09-24T02:28:29.395Z,7.40
2022-09-24T02:31:21.269Z,7.07
2022-09-24T02:34:09.134Z,7.23
2022-09-24T02:36:36.082Z,7.77
2022-09-24T02:39:03.261Z,6.47
2022-09-24T02:41:30.195Z,6.90
2022-09-24T02:43:56.673Z,7.40
2022-09-24T02:46:23.179Z,7.40
2022-09-24T02:48:50.408Z,8.57
2022-09-24T02:51:16.838Z,8.77
2022-09-24T02:53:43.314Z,7.83
2022-09-24T02:56:09.887Z,8.03
2022-09-24T02:58:37.580Z,8.17
2022-09-24T03:01:05.381Z,8.40
2022-09-24T03:03:32.286Z,8.80
2022-09-24T03:05:58.782Z,8.07
2022-09-24T03:08:25.531Z,8.40
2022-09-24T03:10:52.321Z,9.67
2022-09-24T03:13:19.043Z,9.67
2022-09-24T03:15:46.295Z,10.37
2022-09-24T03:18:13.545Z,9.97
2022-09-24T03:20:40.163Z,11.40
2022-09-24T03:23:06.801Z,11.17
2022-09-24T03:25:33.242Z,12.43
2022-09-24T03:27:59.706Z,12.73
2022-09-24T03:30:44.869Z,13.87
2022-09-24T03:33:11.379Z,14.60
2022-09-24T03:35:37.861Z,14.20
2022-09-24T03:38:04.339Z,14.80
2022-09-24T03:40:30.806Z,14.73
2022-09-24T03:42:57.317Z,14.73
2022-09-24T03:45:23.815Z,16.03
2022-09-24T03:47:50.247Z,15.93
2022-09-24T03:50:17.320Z,16.50
2022-09-24T03:52:43.765Z,16.47
2022-09-24T03:55:10.232Z,15.57
2022-09-24T03:57:36.665Z,16.40
2022-09-24T04:00:04.315Z,16.10
2022-09-24T04:02:31.191Z,14.60
2022-09-24T04:04:57.689Z,14.40
2022-09-24T04:07:24.254Z,14.43
2022-09-24T04:09:50.849Z,14.67
2022-09-24T04:12:17.274Z,13.77
2022-09-24T04:14:43.791Z,12.63
2022-09-24T04:17:10.360Z,13.00
2022-09-24T04:19:36.822Z,12.80
2022-09-24T04:22:03.835Z,12.33
2022-09-24T04:24:30.291Z,11.13
2022-09-24T04:26:56.749Z,11.53
2022-09-24T04:29:23.256Z,11.90
2022-09-24T04:31:49.738Z,12.83
2022-09-24T04:34:16.239Z,12.63
2022-09-24T04:36:42.657Z,14.03
2022-09-24T04:39:09.481Z,13.33
2022-09-24T04:41:37.720Z,13.27
2022-09-24T04:44:05.377Z,13.67
2022-09-24T04:46:34.431Z,14.53
2022-09-24T04:49:01.239Z,14.93
2022-09-24T04:51:27.776Z,12.83
2022-09-24T04:53:54.267Z,12.73
2022-09-24T04:56:21.011Z,13.00
2022-09-24T04:58:50.893Z,13.47
2022-09-24T05:01:17.472Z,12.20
2022-09-24T05:03:45.166Z,12.00
2022-09-24T05:06:12.010Z,13.03
2022-09-24T05:08:38.457Z,12.63
2022-09-24T05:11:05.205Z,12.50
2022-09-24T05:13:31.693Z,12.93
2022-09-24T05:16:00.822Z,12.27
2022-09-24T05:18:27.964Z,12.27
2022-09-24T05:20:54.539Z,12.27
2022-09-24T05:23:20.984Z,12.87
2022-09-24T05:26:06.071Z,11.90
2022-09-24T05:28:33.235Z,12.10
2022-09-24T05:31:00.100Z,12.27
2022-09-24T05:33:26.950Z,13.33
2022-09-24T05:35:57.955Z,13.20
2022-09-24T05:38:24.622Z,13.47
2022-09-24T05:40:51.181Z,14.23
2022-09-24T05:43:19.402Z,14.17
2022-09-24T05:45:46.296Z,13.80
2022-09-24T05:48:12.814Z,13.97
2022-09-24T05:50:39.328Z,16.17
2022-09-24T05:53:06.433Z,16.40
2022-09-24T05:55:33.628Z,19.23
2022-09-24T05:58:07.898Z,17.53
2022-09-24T06:00:36.164Z,19.83
2022-09-24T06:03:09.141Z,18.87
2022-09-24T06:05:35.760Z,19.17
2022-09-24T06:08:03.685Z,20.13
2022-09-24T06:10:30.406Z,21.00
2022-09-24T06:12:56.902Z,20.77
2022-09-24T06:15:24.258Z,19.53
2022-09-24T06:17:53.583Z,18.47
2022-09-24T06:20:20.351Z,19.23
2022-09-24T06:22:47.109Z,19.20
2022-09-24T06:25:13.563Z,18.93
2022-09-24T06:27:40.026Z,19.83
2022-09-24T06:30:07.344Z,19.23
2022-09-24T06:32:33.786Z,20.53
2022-09-24T06:35:00.260Z,20.33
2022-09-24T06:37:26.689Z,19.63
2022-09-24T06:39:53.166Z,19.80
2022-09-24T06:42:20.115Z,20.60
2022-09-24T06:44:46.592Z,21.10
2022-09-24T06:47:13.046Z,19.60
2022-09-24T06:49:40.338Z,20.13
2022-09-24T06:52:06.883Z,21.13
2022-09-24T06:54:33.330Z,18.77
2022-09-24T06:56:59.789Z,20.13
2022-09-24T06:59:26.259Z,18.87
2022-09-24T07:01:52.767Z,18.73
2022-09-24T07:04:19.314Z,18.10
2022-09-24T07:07:04.478Z,16.33
2022-09-24T07:09:31.089Z,16.90
2022-09-24T07:11:58.936Z,17.20
2022-09-24T07:14:28.665Z,18.87
2022-09-24T07:16:55.117Z,18.10
2022-09-24T07:19:22.386Z,19.87
2022-09-24T07:21:49.362Z,18.37
2022-09-24T07:24:15.793Z,19.97
2022-09-24T07:26:42.340Z,18.60
2022-09-24T07:29:09.043Z,18.27
2022-09-24T07:31:36.610Z,18.20
2022-09-24T07:34:03.384Z,16.20
2022-09-24T07:36:32.979Z,15.83
2022-09-24T07:38:59.532Z,16.53
2022-09-24T07:41:25.983Z,16.20
2022-09-24T07:43:53.225Z,16.83
2022-09-24T07:46:21.253Z,17.23
2022-09-24T07:48:49.170Z,16.43
2022-09-24T07:51:16.470Z,16.40
2022-09-24T07:53:43.006Z,15.73
2022-09-24T07:56:09.519Z,17.03
2022-09-24T07:58:36.260Z,16.80
2022-09-24T08:01:03.184Z,17.30
2022-09-24T08:03:29.681Z,16.73
2022-09-24T08:06:00.087Z,17.50
2022-09-24T08:08:26.624Z,17.33
2022-09-24T08:10:53.450Z,16.27
2022-09-24T08:13:23.924Z,16.90
2022-09-24T08:15:59.567Z,17.57
2022-09-24T08:18:26.599Z,17.30
2022-09-24T08:20:53.343Z,16.33
2022-09-24T08:23:20.912Z,17.00
2022-09-24T08:25:48.260Z,17.77
2022-09-24T08:28:17.094Z,17.53
2022-09-24T08:30:44.223Z,16.30
2022-09-24T08:33:11.464Z,17.17
2022-09-24T08:35:40.220Z,15.30
2022-09-24T08:38:07.202Z,15.47
2022-09-24T08:40:39.050Z,16.07
2022-09-24T08:43:36.323Z,19.67
2022-09-24T08:46:22.920Z,22.30
2022-09-24T08:48:51.860Z,16.83
2022-09-24T08:51:20.371Z,14.30
2022-09-24T08:53:49.315Z,14.27
2022-09-24T08:56:22.001Z,14.27
2022-09-24T08:58:57.728Z,13.60
2022-09-24T09:02:07.123Z,14.60
2022-09-24T09:04:37.834Z,12.63
2022-09-24T09:07:21.802Z,12.40
2022-09-24T09:09:57.356Z,13.07
2022-09-24T09:12:26.623Z,13.17
2022-09-24T09:15:03.762Z,13.07
2022-09-24T09:17:48.975Z,12.90
2022-09-24T09:20:21.823Z,12.47
2022-09-24T09:22:55.142Z,13.73
2022-09-24T09:25:30.808Z,12.40
2022-09-24T09:28:17.765Z,13.50
2022-09-24T09:30:53.555Z,11.63
2022-09-24T09:33:46.440Z,12.00
2022-09-24T09:36:31.040Z,11.80
2022-09-24T09:39:44.544Z,10.70
2022-09-24T09:42:37.249Z,11.63
2022-09-24T09:45:18.719Z,11.83
2022-09-24T09:48:04.649Z,12.10
2022-09-24T09:50:40.824Z,10.63
2022-09-24T09:53:24.415Z,9.53
2022-09-24T09:55:56.053Z,9.80
2022-09-24T09:58:24.742Z,10.83
2022-09-24T10:00:51.598Z,9.67
2022-09-24T10:03:30.138Z,9.80
2022-09-24T10:05:59.303Z,10.43
2022-09-24T10:08:26.127Z,10.10
2022-09-24T10:10:56.981Z,9.77
2022-09-24T10:13:24.390Z,9.90
2022-09-24T10:15:58.857Z,10.00
2022-09-24T10:18:28.399Z,8.97
2022-09-24T10:20:56.950Z,9.53
2022-09-24T10:23:32.852Z,10.03
2022-09-24T10:26:01.227Z,8.93
2022-09-24T10:28:58.375Z,8.93
2022-09-24T10:31:27.117Z,8.90
2022-09-24T10:33:56.237Z,9.17
2022-09-24T10:36:30.484Z,8.63
2022-09-24T10:39:12.973Z,8.97
2022-09-24T10:41:46.612Z,8.83
2022-09-24T10:44:16.235Z,10.03
2022-09-24T10:47:01.094Z,8.93
2022-09-24T10:50:05.412Z,9.17
2022-09-24T10:52:58.000Z,8.00
2022-09-24T10:55:58.015Z,7.43
2022-09-24T10:58:37.445Z,7.73
2022-09-24T11:01:22.871Z,7.60
2022-09-24T11:04:19.184Z,7.80
2022-09-24T11:07:10.624Z,7.33
2022-09-24T11:10:05.423Z,6.50
2022-09-24T11:12:56.741Z,7.17
2022-09-24T11:16:06.982Z,6.60
2022-09-24T11:18:45.932Z,6.63
2022-09-24T11:21:20.701Z,8.83
2022-09-24T11:24:08.551Z,7.53
2022-09-24T11:26:46.045Z,7.07
2022-09-24T11:29:37.163Z,6.50
2022-09-24T11:32:46.534Z,7.97
2022-09-24T11:35:25.778Z,10.10
2022-09-24T11:38:09.002Z,11.43
2022-09-24T11:41:35.181Z,12.00
2022-09-24T11:44:29.160Z,11.53
2022-09-24T11:47:21.426Z,12.30
2022-09-24T11:49:51.692Z,10.97
2022-09-24T11:52:35.252Z,10.37
2022-09-24T11:55:15.137Z,10.43
2022-09-24T11:57:57.392Z,9.93
2022-09-24T12:00:24.672Z,10.57
2022-09-24T12:03:28.516Z,12.53
2022-09-24T12:06:00.846Z,13.37
2022-09-24T12:08:42.058Z,13.77
2022-09-24T12:11:14.251Z,14.60
2022-09-24T12:13:53.888Z,14.13
2022-09-24T12:16:24.991Z,13.63
2022-09-24T12:19:06.131Z,13.40
2022-09-24T12:21:35.127Z,13.93
2022-09-24T12:24:05.249Z,14.33
2022-09-24T12:26:36.132Z,13.27
2022-09-24T12:29:46.469Z,13.47
2022-09-24T12:32:50.172Z,15.00
2022-09-24T12:35:49.814Z,16.80
2022-09-24T12:38:20.362Z,16.10
2022-09-24T12:40:55.961Z,15.53
2022-09-24T12:43:45.424Z,15.67
2022-09-24T12:46:21.845Z,14.63
2022-09-24T12:48:49.874Z,14.10
2022-09-24T12:51:22.384Z,14.67
2022-09-24T12:53:58.262Z,14.27
2022-09-24T12:56:27.051Z,14.23
2022-09-24T12:58:54.418Z,16.00
2022-09-24T13:01:21.264Z,14.23
2022-09-24T13:04:05.715Z,18.20
2022-09-24T13:06:37.230Z,18.87
2022-09-24T13:09:38.287Z,15.90
2022-09-24T13:12:17.671Z,15.57
2022-09-24T13:15:04.729Z,18.43
2022-09-24T13:17:33.141Z,18.17
2022-09-24T13:20:05.605Z,15.77
2022-09-24T13:22:34.793Z,15.37
2022-09-24T13:25:07.784Z,14.83
2022-09-24T13:27:41.821Z,17.23
2022-09-24T13:30:18.878Z,15.33
2022-09-24T13:32:59.059Z,18.63
2022-09-24T13:35:31.354Z,17.63
2022-09-24T13:38:06.670Z,20.37
2022-09-24T13:40:37.271Z,22.20
2022-09-24T13:43:19.351Z,20.73
2022-09-24T13:45:46.690Z,18.50
2022-09-24T13:48:22.528Z,20.07
2022-09-24T13:50:51.549Z,19.80
2022-09-24T13:53:31.474Z,17.67
2022-09-24T13:56:00.537Z,17.73
2022-09-24T13:58:41.714Z,17.57
2022-09-24T14:01:18.736Z,19.87
2022-09-24T14:04:00.383Z,18.60
2022-09-24T14:06:41.204Z,17.13
2022-09-24T14:09:35.138Z,18.23
2022-09-24T14:12:12.913Z,16.60
2022-09-24T14:14:43.842Z,19.83
2022-09-24T14:17:14.151Z,18.23
2022-09-24T14:19:41.252Z,18.00
2022-09-24T14:22:20.162Z,17.67
2022-09-24T14:25:00.082Z,18.30
2022-09-24T14:27:27.081Z,16.37
2022-09-24T14:30:06.170Z,17.27
2022-09-24T14:32:35.038Z,16.03
2022-09-24T14:35:05.795Z,15.43
2022-09-24T14:37:38.095Z,15.30
2022-09-24T14:40:12.805Z,15.80
2022-09-24T14:42:44.119Z,17.17
2022-09-24T14:45:26.947Z,18.43
2022-09-24T14:48:17.897Z,16.93
2022-09-24T14:50:44.321Z,16.93
2022-09-24T14:53:21.699Z,16.30
2022-09-24T14:55:49.833Z,17.03
2022-09-24T14:58:33.088Z,16.37
2022-09-24T15:01:01.811Z,17.97
2022-09-24T15:03:45.049Z,16.30
2022-09-24T15:06:21.409Z,16.87
2022-09-24T15:08:57.989Z,17.70
2022-09-24T15:11:27.889Z,16.97
2022-09-24T15:14:02.758Z,17.67
2022-09-24T15:16:32.644Z,19.07
2022-09-24T15:19:08.179Z,18.27
2022-09-24T15:21:34.773Z,18.63
2022-09-24T15:24:01.483Z,15.07
2022-09-24T15:26:39.776Z,14.93
2022-09-24T15:29:07.065Z,16.50
2022-09-24T15:31:33.737Z,15.07
2022-09-24T15:34:00.271Z,14.20
2022-09-24T15:36:26.744Z,14.03
2022-09-24T15:38:59.420Z,16.87
2022-09-24T15:41:25.895Z,14.83
2022-09-24T15:43:56.343Z,14.23
2022-09-24T15:46:22.860Z,15.33
2022-09-24T15:48:49.347Z,15.50
2022-09-24T15:51:17.877Z,19.33
2022-09-24T15:53:44.314Z,25.23
2022-09-24T15:56:11.324Z,22.10
2022-09-24T15:58:38.024Z,23.70
2022-09-24T16:01:04.792Z,35.40
2022-09-24T16:03:32.384Z,25.10
2022-09-24T16:06:00.042Z,42.27
2022-09-24T16:08:27.222Z,41.90
2022-09-24T16:10:53.744Z,25.40
2022-09-24T16:13:22.401Z,27.00
2022-09-24T16:15:49.439Z,17.60
2022-09-24T16:18:17.847Z,22.20
2022-09-24T16:20:46.225Z,20.47
2022-09-24T16:23:17.010Z,21.03
2022-09-24T16:25:54.670Z,21.63
2022-09-24T16:28:21.561Z,22.17
2022-09-24T16:30:48.157Z,20.97
2022-09-24T16:33:14.646Z,19.53
2022-09-24T16:35:41.114Z,28.73
2022-09-24T16:38:07.567Z,28.57
2022-09-24T16:40:34.206Z,23.87
2022-09-24T16:43:00.778Z,26.20
2022-09-24T16:45:27.258Z,20.47
2022-09-24T16:47:53.741Z,22.13
2022-09-24T16:50:20.301Z,19.53
2022-09-24T16:52:49.141Z,22.07
2022-09-24T16:55:16.547Z,20.03
2022-09-24T16:57:43.102Z,18.47
2022-09-24T17:00:11.517Z,17.77
2022-09-24T17:02:39.127Z,21.63
2022-09-24T17:05:06.328Z,20.43
2022-09-24T17:07:32.797Z,30.47
2022-09-24T17:10:15.854Z,23.93
2022-09-24T17:12:48.332Z,23.20
2022-09-24T17:15:16.369Z,25.43
2022-09-24T17:17:49.520Z,30.43
2022-09-24T17:20:16.872Z,29.40
2022-09-24T17:22:43.366Z,32.70
2022-09-24T17:25:10.010Z,30.00
2022-09-24T17:27:36.537Z,29.97
2022-09-24T17:30:04.798Z,29.13
2022-09-24T17:32:31.366Z,28.37
2022-09-24T17:34:58.097Z,28.57
2022-09-24T17:37:24.604Z,23.77
2022-09-24T17:39:51.064Z,24.27
2022-09-24T17:42:17.508Z,27.47
2022-09-24T17:44:44.000Z,29.33
2022-09-24T17:47:10.531Z,25.53
2022-09-24T17:49:37.028Z,24.90
2022-09-24T17:52:04.113Z,28.00
2022-09-24T17:54:30.685Z,26.00
2022-09-24T17:56:57.179Z,33.77
2022-09-24T17:59:26.627Z,34.03
2022-09-24T18:01:53.504Z,29.67
2022-09-24T18:04:21.427Z,27.93
2022-09-24T18:06:51.498Z,33.77
2022-09-24T18:09:20.113Z,31.17
2022-09-24T18:11:49.141Z,34.47
2022-09-24T18:14:20.768Z,30.60
2022-09-24T18:16:49.050Z,34.37
2022-09-24T18:19:17.535Z,51.83
2022-09-24T18:21:45.514Z,42.77
2022-09-24T18:24:12.670Z,58.57
2022-09-24T18:26:39.975Z,44.57
2022-09-24T18:29:10.206Z,32.37
2022-09-24T18:31:37.568Z,31.70
2022-09-24T18:34:06.192Z,33.87
2022-09-24T18:36:38.276Z,36.30
2022-09-24T18:39:07.813Z,32.53
2022-09-24T18:41:34.905Z,37.90
2022-09-24T18:44:01.830Z,40.67
2022-09-24T18:46:29.875Z,37.97
2022-09-24T18:48:57.946Z,37.77
2022-09-24T18:51:25.830Z,34.37
2022-09-24T18:53:53.888Z,39.17
2022-09-24T18:56:21.116Z,37.83
2022-09-24T18:58:48.138Z,41.50
2022-09-24T19:01:16.129Z,33.40
2022-09-24T19:03:44.671Z,33.20
2022-09-24T19:06:12.863Z,37.67
2022-09-24T19:08:39.797Z,37.77
2022-09-24T19:11:09.449Z,40.60
2022-09-24T19:13:37.661Z,35.70
2022-09-24T19:16:09.919Z,38.53
2022-09-24T19:18:37.181Z,35.10
2022-09-24T19:21:06.590Z,34.30
2022-09-24T19:23:37.992Z,41.27
2022-09-24T19:26:06.044Z,39.23
2022-09-24T19:28:33.134Z,36.43
2022-09-24T19:30:59.724Z,36.13
2022-09-24T19:33:26.363Z,35.90
2022-09-24T19:35:58.053Z,40.00
2022-09-24T19:38:26.441Z,40.37
2022-09-24T19:41:01.792Z,41.03
2022-09-24T19:43:29.518Z,40.03
2022-09-24T19:45:58.349Z,37.80
2022-09-24T19:49:04.277Z,38.03
2022-09-24T19:51:32.345Z,37.17
2022-09-24T19:54:01.190Z,36.97
2022-09-24T19:56:28.752Z,38.90
2022-09-24T19:58:57.335Z,40.40
2022-09-24T20:01:28.217Z,36.73
2022-09-24T20:03:55.768Z,36.20
2022-09-24T20:06:24.409Z,36.67
2022-09-24T20:08:51.379Z,35.03
2022-09-24T20:11:20.464Z,38.23
2022-09-24T20:13:52.130Z,33.77
2022-09-24T20:16:20.709Z,39.10
2022-09-24T20:18:48.762Z,35.63
2022-09-24T20:21:18.387Z,35.27
2022-09-24T20:23:46.266Z,37.03
2022-09-24T20:26:32.360Z,36.30
2022-09-24T20:28:59.495Z,32.87
2022-09-24T20:31:26.477Z,33.53
2022-09-24T20:33:53.128Z,36.03
2022-09-24T20:36:24.079Z,38.67
2022-09-24T20:38:51.894Z,33.83
2022-09-24T20:41:20.953Z,34.57
2022-09-24T20:43:47.492Z,32.67
2022-09-24T20:46:17.705Z,35.70
2022-09-24T20:48:44.254Z,35.93
2022-09-24T20:51:12.645Z,34.03
2022-09-24T20:53:39.665Z,34.57
2022-09-24T20:56:06.619Z,35.77
2022-09-24T20:58:33.817Z,35.07
2022-09-24T21:01:00.987Z,35.30
2022-09-24T21:03:43.350Z,37.23
2022-09-24T21:06:11.967Z,33.13
2022-09-24T21:08:40.166Z,39.33
2022-09-24T21:11:08.820Z,40.33
2022-09-24T21:13:39.932Z,41.73
2022-09-24T21:16:06.876Z,42.03
2022-09-24T21:18:40.104Z,44.30
2022-09-24T21:21:11.273Z,47.27
2022-09-24T21:23:39.605Z,44.00
2022-09-24T21:26:23.176Z,42.47
2022-09-24T21:28:52.201Z,45.33
2022-09-24T21:31:21.533Z,44.97
2022-09-24T21:33:49.587Z,43.93
2022-09-24T21:36:19.494Z,50.10
2022-09-24T21:39:08.496Z,47.37
2022-09-24T21:41:37.423Z,53.83
2022-09-24T21:44:06.002Z,51.23
2022-09-24T21:46:34.398Z,50.87
2022-09-24T21:49:01.828Z,54.33
2022-09-24T21:51:30.024Z,58.63
2022-09-24T21:54:01.039Z,56.10
2022-09-24T21:56:28.731Z,62.27
2022-09-24T21:58:56.287Z,58.77
2022-09-24T22:01:33.901Z,54.83
2022-09-24T22:04:07.430Z,58.17
2022-09-24T22:06:33.930Z,66.50
2022-09-24T22:09:06.554Z,62.47
2022-09-24T22:11:34.616Z,65.33
2022-09-24T22:14:02.353Z,62.20
2022-09-24T22:16:30.658Z,65.67
2022-09-24T22:18:57.222Z,64.33
2022-09-24T22:21:23.849Z,60.77
2022-09-24T22:23:50.619Z,60.93
2022-09-24T22:26:18.613Z,56.70
2022-09-24T22:28:45.505Z,62.07
2022-09-24T22:31:14.597Z,66.53
2022-09-24T22:34:00.308Z,63.10
2022-09-24T22:36:31.387Z,60.33
2022-09-24T22:38:59.895Z,61.40
2022-09-24T22:41:28.638Z,57.90
2022-09-24T22:43:57.167Z,57.87
2022-09-24T22:46:39.090Z,63.27
2022-09-24T22:49:05.895Z,69.50
2022-09-24T22:51:34.437Z,64.57
2022-09-24T22:54:01.327Z,63.50
2022-09-24T22:56:28.566Z,67.33
2022-09-24T22:58:57.291Z,71.80
2022-09-24T23:01:30.352Z,70.97
2022-09-24T23:03:57.387Z,70.83
2022-09-24T23:06:25.344Z,73.07
2022-09-24T23:08:53.634Z,77.60
2022-09-24T23:11:22.538Z,73.40
2022-09-24T23:14:00.757Z,74.30
2022-09-24T23:16:30.303Z,74.50
2022-09-24T23:18:59.832Z,72.40
2022-09-24T23:21:28.368Z,77.03
2022-09-24T23:23:58.635Z,78.23
2022-09-24T23:26:26.185Z,89.43
2022-09-24T23:28:54.043Z,83.00
2022-09-24T23:31:25.362Z,76.90
2022-09-24T23:33:54.232Z,84.60
2022-09-24T23:36:20.902Z,81.07
2022-09-24T23:38:47.340Z,79.03
2022-09-24T23:41:14.449Z,71.87
2022-09-24T23:43:41.861Z,72.70
2022-09-24T23:46:09.662Z,70.73
2022-09-24T23:48:38.307Z,79.90
2022-09-24T23:51:05.954Z,78.37
2022-09-24T23:53:34.160Z,76.40
2022-09-24T23:56:01.324Z,78.90
2022-09-24T23:58:28.206Z,70.27
